sensor_id;sensor_type;location;lat;lon;timestamp;P1;durP1;ratioP1;P2;durP2;ratioP2
45368;SDS011;51342;55.250;37.668;2023-03-12T00:04:06;21.77;;;10.40;;
45368;SDS011;51342;55.250;37.668;2023-03-12T00:06:37;23.73;;;10.70;;
45368;SDS011;51342;55.250;37.668;2023-03-12T00:09:09;19.90;;;10.53;;
45368;SDS011;51342;55.250;37.668;2023-03-12T00:11:40;24.80;;;11.07;;
45368;SDS011;51342;55.250;37.668;2023-03-12T00:14:11;22.40;;;10.13;;
45368;SDS011;51342;55.250;37.668;2023-03-12T00:16:43;23.63;;;10.90;;
45368;SDS011;51342;55.250;37.668;2023-03-12T00:19:14;26.57;;;11.63;;
45368;SDS011;51342;55.250;37.668;2023-03-12T00:21:45;30.57;;;13.13;;
45368;SDS011;51342;55.250;37.668;2023-03-12T00:24:17;35.67;;;13.93;;
45368;SDS011;51342;55.250;37.668;2023-03-12T00:26:48;34.17;;;13.83;;
45368;SDS011;51342;55.250;37.668;2023-03-12T00:29:20;30.97;;;12.87;;
45368;SDS011;51342;55.250;37.668;2023-03-12T00:31:51;41.27;;;14.67;;
45368;SDS011;51342;55.250;37.668;2023-03-12T00:34:22;39.90;;;14.20;;
45368;SDS011;51342;55.250;37.668;2023-03-12T00:36:54;44.47;;;15.13;;
45368;SDS011;51342;55.250;37.668;2023-03-12T00:39:27;37.07;;;13.80;;
45368;SDS011;51342;55.250;37.668;2023-03-12T00:41:59;33.47;;;12.87;;
45368;SDS011;51342;55.250;37.668;2023-03-12T00:44:31;36.83;;;14.03;;
45368;SDS011;51342;55.250;37.668;2023-03-12T00:47:02;41.07;;;13.93;;
45368;SDS011;51342;55.250;37.668;2023-03-12T00:49:34;41.77;;;14.83;;
45368;SDS011;51342;55.250;37.668;2023-03-12T00:52:05;45.07;;;16.87;;
45368;SDS011;51342;55.250;37.668;2023-03-12T00:54:36;40.87;;;13.97;;
45368;SDS011;51342;55.250;37.668;2023-03-12T00:57:08;52.70;;;17.57;;
45368;SDS011;51342;55.250;37.668;2023-03-12T00:59:40;51.87;;;16.80;;
45368;SDS011;51342;55.250;37.668;2023-03-12T01:02:12;44.07;;;15.90;;
45368;SDS011;51342;55.250;37.668;2023-03-12T01:04:44;41.63;;;13.93;;
45368;SDS011;51342;55.250;37.668;2023-03-12T01:07:15;52.47;;;17.17;;
45368;SDS011;51342;55.250;37.668;2023-03-12T01:09:46;47.67;;;16.33;;
45368;SDS011;51342;55.250;37.668;2023-03-12T01:12:18;45.17;;;15.70;;
45368;SDS011;51342;55.250;37.668;2023-03-12T01:14:49;47.60;;;15.77;;
45368;SDS011;51342;55.250;37.668;2023-03-12T01:17:20;49.23;;;17.03;;
45368;SDS011;51342;55.250;37.668;2023-03-12T01:19:52;44.10;;;15.13;;
45368;SDS011;51342;55.250;37.668;2023-03-12T01:22:23;40.23;;;15.87;;
45368;SDS011;51342;55.250;37.668;2023-03-12T01:24:55;45.77;;;16.77;;
45368;SDS011;51342;55.250;37.668;2023-03-12T01:27:26;51.93;;;15.77;;
45368;SDS011;51342;55.250;37.668;2023-03-12T01:29:58;44.87;;;15.43;;
45368;SDS011;51342;55.250;37.668;2023-03-12T01:32:29;51.67;;;16.63;;
45368;SDS011;51342;55.250;37.668;2023-03-12T01:35:00;45.73;;;15.53;;
45368;SDS011;51342;55.250;37.668;2023-03-12T01:37:32;45.70;;;16.40;;
45368;SDS011;51342;55.250;37.668;2023-03-12T01:40:04;47.33;;;15.80;;
45368;SDS011;51342;55.250;37.668;2023-03-12T01:42:35;46.80;;;15.97;;
45368;SDS011;51342;55.250;37.668;2023-03-12T01:45:49;47.93;;;16.20;;
45368;SDS011;51342;55.250;37.668;2023-03-12T01:48:17;43.13;;;15.57;;
45368;SDS011;51342;55.250;37.668;2023-03-12T01:50:50;48.00;;;16.13;;
45368;SDS011;51342;55.250;37.668;2023-03-12T01:53:22;43.57;;;15.50;;
45368;SDS011;51342;55.250;37.668;2023-03-12T01:55:54;45.90;;;16.27;;
45368;SDS011;51342;55.250;37.668;2023-03-12T01:58:29;44.03;;;16.00;;
45368;SDS011;51342;55.250;37.668;2023-03-12T02:01:04;40.57;;;14.43;;
45368;SDS011;51342;55.250;37.668;2023-03-12T02:03:36;40.80;;;15.40;;
45368;SDS011;51342;55.250;37.668;2023-03-12T02:06:13;46.73;;;16.43;;
45368;SDS011;51342;55.250;37.668;2023-03-12T02:08:46;43.17;;;16.10;;
45368;SDS011;51342;55.250;37.668;2023-03-12T02:11:18;44.73;;;15.77;;
45368;SDS011;51342;55.250;37.668;2023-03-12T02:13:49;41.00;;;15.27;;
45368;SDS011;51342;55.250;37.668;2023-03-12T02:16:21;45.93;;;16.33;;
45368;SDS011;51342;55.250;37.668;2023-03-12T02:18:52;41.77;;;16.00;;
45368;SDS011;51342;55.250;37.668;2023-03-12T02:21:27;46.47;;;16.37;;
45368;SDS011;51342;55.250;37.668;2023-03-12T02:26:56;40.63;;;15.60;;
45368;SDS011;51342;55.250;37.668;2023-03-12T02:29:27;42.60;;;16.27;;
45368;SDS011;51342;55.250;37.668;2023-03-12T02:32:02;47.23;;;16.43;;
45368;SDS011;51342;55.250;37.668;2023-03-12T02:34:36;47.67;;;17.23;;
45368;SDS011;51342;55.250;37.668;2023-03-12T02:37:08;46.57;;;16.10;;
45368;SDS011;51342;55.250;37.668;2023-03-12T02:39:39;43.10;;;16.17;;
45368;SDS011;51342;55.250;37.668;2023-03-12T02:42:12;50.50;;;16.87;;
45368;SDS011;51342;55.250;37.668;2023-03-12T02:44:44;48.13;;;15.93;;
45368;SDS011;51342;55.250;37.668;2023-03-12T02:47:16;44.87;;;15.97;;
45368;SDS011;51342;55.250;37.668;2023-03-12T02:49:47;46.80;;;16.00;;
45368;SDS011;51342;55.250;37.668;2023-03-12T02:52:19;49.17;;;16.27;;
45368;SDS011;51342;55.250;37.668;2023-03-12T02:54:50;43.80;;;15.43;;
45368;SDS011;51342;55.250;37.668;2023-03-12T02:57:22;47.50;;;17.60;;
45368;SDS011;51342;55.250;37.668;2023-03-12T02:59:53;48.97;;;16.53;;
45368;SDS011;51342;55.250;37.668;2023-03-12T03:02:25;55.43;;;17.87;;
45368;SDS011;51342;55.250;37.668;2023-03-12T03:04:58;52.00;;;18.10;;
45368;SDS011;51342;55.250;37.668;2023-03-12T03:07:29;56.40;;;19.00;;
45368;SDS011;51342;55.250;37.668;2023-03-12T03:10:02;58.60;;;17.47;;
45368;SDS011;51342;55.250;37.668;2023-03-12T03:12:35;59.27;;;17.77;;
45368;SDS011;51342;55.250;37.668;2023-03-12T03:15:08;61.13;;;18.17;;
45368;SDS011;51342;55.250;37.668;2023-03-12T03:17:41;59.50;;;18.47;;
45368;SDS011;51342;55.250;37.668;2023-03-12T03:20:12;61.23;;;18.07;;
45368;SDS011;51342;55.250;37.668;2023-03-12T03:22:44;63.87;;;18.37;;
45368;SDS011;51342;55.250;37.668;2023-03-12T03:25:15;64.90;;;19.67;;
45368;SDS011;51342;55.250;37.668;2023-03-12T03:27:48;67.43;;;18.57;;
45368;SDS011;51342;55.250;37.668;2023-03-12T03:30:19;57.17;;;17.77;;
45368;SDS011;51342;55.250;37.668;2023-03-12T03:32:54;56.20;;;17.60;;
45368;SDS011;51342;55.250;37.668;2023-03-12T03:35:25;60.37;;;18.37;;
45368;SDS011;51342;55.250;37.668;2023-03-12T03:37:57;57.87;;;17.67;;
45368;SDS011;51342;55.250;37.668;2023-03-12T03:40:29;57.30;;;19.30;;
45368;SDS011;51342;55.250;37.668;2023-03-12T03:43:01;58.80;;;19.23;;
45368;SDS011;51342;55.250;37.668;2023-03-12T03:45:32;56.97;;;18.17;;
45368;SDS011;51342;55.250;37.668;2023-03-12T03:48:04;54.53;;;18.70;;
45368;SDS011;51342;55.250;37.668;2023-03-12T03:50:37;58.57;;;18.77;;
45368;SDS011;51342;55.250;37.668;2023-03-12T03:53:09;53.37;;;17.07;;
45368;SDS011;51342;55.250;37.668;2023-03-12T03:55:40;55.73;;;18.30;;
45368;SDS011;51342;55.250;37.668;2023-03-12T03:58:13;58.73;;;18.97;;
45368;SDS011;51342;55.250;37.668;2023-03-12T04:00:44;57.00;;;18.93;;
45368;SDS011;51342;55.250;37.668;2023-03-12T04:03:16;51.73;;;17.93;;
45368;SDS011;51342;55.250;37.668;2023-03-12T04:05:52;61.90;;;18.93;;
45368;SDS011;51342;55.250;37.668;2023-03-12T04:08:24;63.42;;;19.42;;
45368;SDS011;51342;55.250;37.668;2023-03-12T04:10:57;56.97;;;19.27;;
45368;SDS011;51342;55.250;37.668;2023-03-12T04:13:28;59.67;;;19.37;;
45368;SDS011;51342;55.250;37.668;2023-03-12T04:15:59;66.60;;;20.23;;
45368;SDS011;51342;55.250;37.668;2023-03-12T04:18:31;68.20;;;19.37;;
45368;SDS011;51342;55.250;37.668;2023-03-12T04:21:05;59.67;;;18.97;;
45368;SDS011;51342;55.250;37.668;2023-03-12T04:23:38;61.67;;;19.73;;
45368;SDS011;51342;55.250;37.668;2023-03-12T04:26:11;66.10;;;19.63;;
45368;SDS011;51342;55.250;37.668;2023-03-12T04:28:43;66.67;;;19.17;;
45368;SDS011;51342;55.250;37.668;2023-03-12T04:31:15;66.07;;;20.07;;
45368;SDS011;51342;55.250;37.668;2023-03-12T04:33:54;58.53;;;18.97;;
45368;SDS011;51342;55.250;37.668;2023-03-12T04:36:27;68.53;;;19.17;;
45368;SDS011;51342;55.250;37.668;2023-03-12T04:38:59;64.77;;;20.10;;
45368;SDS011;51342;55.250;37.668;2023-03-12T04:41:37;63.80;;;19.67;;
45368;SDS011;51342;55.250;37.668;2023-03-12T04:44:15;57.87;;;18.63;;
45368;SDS011;51342;55.250;37.668;2023-03-12T04:46:46;51.03;;;18.23;;
45368;SDS011;51342;55.250;37.668;2023-03-12T04:49:22;56.57;;;17.97;;
45368;SDS011;51342;55.250;37.668;2023-03-12T04:51:53;53.93;;;17.80;;
45368;SDS011;51342;55.250;37.668;2023-03-12T04:54:25;55.70;;;18.10;;
45368;SDS011;51342;55.250;37.668;2023-03-12T04:56:56;69.30;;;19.97;;
45368;SDS011;51342;55.250;37.668;2023-03-12T04:59:28;56.87;;;17.60;;
45368;SDS011;51342;55.250;37.668;2023-03-12T05:01:59;68.77;;;20.93;;
45368;SDS011;51342;55.250;37.668;2023-03-12T05:04:33;77.20;;;21.63;;
45368;SDS011;51342;55.250;37.668;2023-03-12T05:07:05;77.07;;;20.80;;
45368;SDS011;51342;55.250;37.668;2023-03-12T05:09:36;76.13;;;21.00;;
45368;SDS011;51342;55.250;37.668;2023-03-12T05:12:08;77.57;;;22.63;;
45368;SDS011;51342;55.250;37.668;2023-03-12T05:14:41;80.60;;;24.17;;
45368;SDS011;51342;55.250;37.668;2023-03-12T05:17:12;75.70;;;23.07;;
45368;SDS011;51342;55.250;37.668;2023-03-12T05:19:44;80.23;;;23.83;;
45368;SDS011;51342;55.250;37.668;2023-03-12T05:22:16;85.10;;;23.60;;
45368;SDS011;51342;55.250;37.668;2023-03-12T05:24:48;84.40;;;24.53;;
45368;SDS011;51342;55.250;37.668;2023-03-12T05:27:21;87.67;;;24.77;;
45368;SDS011;51342;55.250;37.668;2023-03-12T05:29:57;79.30;;;23.50;;
45368;SDS011;51342;55.250;37.668;2023-03-12T05:32:29;87.23;;;24.77;;
45368;SDS011;51342;55.250;37.668;2023-03-12T05:35:01;76.47;;;23.73;;
45368;SDS011;51342;55.250;37.668;2023-03-12T05:37:33;85.63;;;24.70;;
45368;SDS011;51342;55.250;37.668;2023-03-12T05:40:05;84.10;;;25.73;;
45368;SDS011;51342;55.250;37.668;2023-03-12T05:42:37;75.83;;;24.33;;
45368;SDS011;51342;55.250;37.668;2023-03-12T05:45:11;80.67;;;24.50;;
45368;SDS011;51342;55.250;37.668;2023-03-12T05:47:48;86.33;;;26.93;;
45368;SDS011;51342;55.250;37.668;2023-03-12T05:50:20;94.83;;;27.00;;
45368;SDS011;51342;55.250;37.668;2023-03-12T05:52:52;91.70;;;26.47;;
45368;SDS011;51342;55.250;37.668;2023-03-12T05:55:24;89.40;;;26.53;;
45368;SDS011;51342;55.250;37.668;2023-03-12T05:57:58;88.97;;;26.67;;
45368;SDS011;51342;55.250;37.668;2023-03-12T06:00:31;103.20;;;27.47;;
45368;SDS011;51342;55.250;37.668;2023-03-12T06:03:06;105.43;;;28.10;;
45368;SDS011;51342;55.250;37.668;2023-03-12T06:05:39;93.87;;;27.37;;
45368;SDS011;51342;55.250;37.668;2023-03-12T06:08:11;98.07;;;27.27;;
45368;SDS011;51342;55.250;37.668;2023-03-12T06:10:44;105.40;;;29.50;;
45368;SDS011;51342;55.250;37.668;2023-03-12T06:13:16;100.33;;;28.63;;
45368;SDS011;51342;55.250;37.668;2023-03-12T06:15:48;103.77;;;29.23;;
45368;SDS011;51342;55.250;37.668;2023-03-12T06:18:19;92.77;;;29.20;;
45368;SDS011;51342;55.250;37.668;2023-03-12T06:20:51;91.23;;;28.50;;
45368;SDS011;51342;55.250;37.668;2023-03-12T06:23:24;93.57;;;27.47;;
45368;SDS011;51342;55.250;37.668;2023-03-12T06:25:56;100.33;;;27.63;;
45368;SDS011;51342;55.250;37.668;2023-03-12T06:28:29;96.30;;;29.27;;
45368;SDS011;51342;55.250;37.668;2023-03-12T06:31:02;101.80;;;28.97;;
45368;SDS011;51342;55.250;37.668;2023-03-12T06:33:35;87.10;;;26.40;;
45368;SDS011;51342;55.250;37.668;2023-03-12T06:36:07;95.37;;;28.47;;
45368;SDS011;51342;55.250;37.668;2023-03-12T06:38:42;82.60;;;26.43;;
45368;SDS011;51342;55.250;37.668;2023-03-12T06:41:16;87.97;;;26.50;;
45368;SDS011;51342;55.250;37.668;2023-03-12T06:43:50;89.10;;;27.40;;
45368;SDS011;51342;55.250;37.668;2023-03-12T06:46:24;94.00;;;26.17;;
45368;SDS011;51342;55.250;37.668;2023-03-12T06:48:56;91.27;;;26.30;;
45368;SDS011;51342;55.250;37.668;2023-03-12T06:51:29;92.60;;;26.87;;
45368;SDS011;51342;55.250;37.668;2023-03-12T06:54:01;89.67;;;27.93;;
45368;SDS011;51342;55.250;37.668;2023-03-12T06:56:34;108.70;;;28.50;;
45368;SDS011;51342;55.250;37.668;2023-03-12T06:59:07;97.43;;;28.57;;
45368;SDS011;51342;55.250;37.668;2023-03-12T07:01:40;95.80;;;28.93;;
45368;SDS011;51342;55.250;37.668;2023-03-12T07:04:14;91.43;;;27.00;;
45368;SDS011;51342;55.250;37.668;2023-03-12T07:06:46;98.50;;;28.03;;
45368;SDS011;51342;55.250;37.668;2023-03-12T07:09:22;99.77;;;28.10;;
45368;SDS011;51342;55.250;37.668;2023-03-12T07:11:58;94.10;;;27.33;;
45368;SDS011;51342;55.250;37.668;2023-03-12T07:14:30;107.90;;;29.83;;
45368;SDS011;51342;55.250;37.668;2023-03-12T07:17:03;105.43;;;29.83;;
45368;SDS011;51342;55.250;37.668;2023-03-12T07:19:37;107.43;;;29.67;;
45368;SDS011;51342;55.250;37.668;2023-03-12T07:22:10;111.57;;;30.00;;
45368;SDS011;51342;55.250;37.668;2023-03-12T07:24:45;112.23;;;32.03;;
45368;SDS011;51342;55.250;37.668;2023-03-12T07:27:19;106.90;;;30.97;;
45368;SDS011;51342;55.250;37.668;2023-03-12T07:29:52;111.40;;;31.30;;
45368;SDS011;51342;55.250;37.668;2023-03-12T07:32:26;105.43;;;30.37;;
45368;SDS011;51342;55.250;37.668;2023-03-12T07:35:02;113.83;;;31.83;;
45368;SDS011;51342;55.250;37.668;2023-03-12T07:37:38;109.88;;;31.92;;
45368;SDS011;51342;55.250;37.668;2023-03-12T07:40:12;109.87;;;31.60;;
45368;SDS011;51342;55.250;37.668;2023-03-12T07:42:44;115.17;;;32.63;;
45368;SDS011;51342;55.250;37.668;2023-03-12T07:45:19;113.77;;;31.67;;
45368;SDS011;51342;55.250;37.668;2023-03-12T07:47:55;108.25;;;30.42;;
45368;SDS011;51342;55.250;37.668;2023-03-12T07:50:29;105.07;;;29.50;;
45368;SDS011;51342;55.250;37.668;2023-03-12T07:53:02;84.97;;;26.37;;
45368;SDS011;51342;55.250;37.668;2023-03-12T07:55:37;88.97;;;25.87;;
45368;SDS011;51342;55.250;37.668;2023-03-12T07:58:14;74.93;;;24.43;;
45368;SDS011;51342;55.250;37.668;2023-03-12T08:00:48;65.07;;;22.70;;
45368;SDS011;51342;55.250;37.668;2023-03-12T08:03:25;65.50;;;22.67;;
45368;SDS011;51342;55.250;37.668;2023-03-12T08:06:03;69.07;;;22.87;;
45368;SDS011;51342;55.250;37.668;2023-03-12T08:08:39;63.80;;;21.00;;
45368;SDS011;51342;55.250;37.668;2023-03-12T08:11:12;56.10;;;20.97;;
45368;SDS011;51342;55.250;37.668;2023-03-12T08:13:51;57.80;;;19.47;;
45368;SDS011;51342;55.250;37.668;2023-03-12T08:16:25;49.80;;;19.17;;
45368;SDS011;51342;55.250;37.668;2023-03-12T08:19:01;52.80;;;19.10;;
45368;SDS011;51342;55.250;37.668;2023-03-12T08:21:33;60.07;;;19.97;;
45368;SDS011;51342;55.250;37.668;2023-03-12T08:24:05;49.83;;;18.97;;
45368;SDS011;51342;55.250;37.668;2023-03-12T08:26:40;46.70;;;18.03;;
45368;SDS011;51342;55.250;37.668;2023-03-12T08:29:12;41.20;;;17.17;;
45368;SDS011;51342;55.250;37.668;2023-03-12T08:31:46;41.47;;;17.03;;
45368;SDS011;51342;55.250;37.668;2023-03-12T08:34:20;41.00;;;16.87;;
45368;SDS011;51342;55.250;37.668;2023-03-12T08:36:52;43.23;;;16.43;;
45368;SDS011;51342;55.250;37.668;2023-03-12T08:39:27;37.87;;;15.80;;
45368;SDS011;51342;55.250;37.668;2023-03-12T08:42:01;39.97;;;15.33;;
45368;SDS011;51342;55.250;37.668;2023-03-12T08:44:35;36.60;;;15.00;;
45368;SDS011;51342;55.250;37.668;2023-03-12T08:47:09;34.43;;;15.30;;
45368;SDS011;51342;55.250;37.668;2023-03-12T08:49:43;32.87;;;14.23;;
45368;SDS011;51342;55.250;37.668;2023-03-12T08:52:18;32.53;;;13.73;;
45368;SDS011;51342;55.250;37.668;2023-03-12T08:54:51;33.37;;;13.57;;
45368;SDS011;51342;55.250;37.668;2023-03-12T08:57:24;29.10;;;12.70;;
45368;SDS011;51342;55.250;37.668;2023-03-12T08:59:59;30.83;;;13.10;;
45368;SDS011;51342;55.250;37.668;2023-03-12T09:02:34;26.13;;;12.13;;
45368;SDS011;51342;55.250;37.668;2023-03-12T09:05:07;26.10;;;12.47;;
45368;SDS011;51342;55.250;37.668;2023-03-12T09:07:39;23.87;;;10.50;;
45368;SDS011;51342;55.250;37.668;2023-03-12T09:12:50;21.10;;;9.93;;
45368;SDS011;51342;55.250;37.668;2023-03-12T09:15:22;21.93;;;10.60;;
45368;SDS011;51342;55.250;37.668;2023-03-12T09:18:00;18.70;;;9.33;;
45368;SDS011;51342;55.250;37.668;2023-03-12T09:20:38;19.70;;;10.17;;
45368;SDS011;51342;55.250;37.668;2023-03-12T09:23:13;17.83;;;9.87;;
45368;SDS011;51342;55.250;37.668;2023-03-12T09:25:48;17.13;;;8.73;;
45368;SDS011;51342;55.250;37.668;2023-03-12T09:28:27;13.87;;;8.33;;
45368;SDS011;51342;55.250;37.668;2023-03-12T09:31:03;14.60;;;8.00;;
45368;SDS011;51342;55.250;37.668;2023-03-12T09:33:37;14.07;;;7.93;;
45368;SDS011;51342;55.250;37.668;2023-03-12T09:36:15;14.27;;;8.07;;
45368;SDS011;51342;55.250;37.668;2023-03-12T09:38:50;12.80;;;7.43;;
45368;SDS011;51342;55.250;37.668;2023-03-12T09:41:29;14.23;;;7.77;;
45368;SDS011;51342;55.250;37.668;2023-03-12T09:47:46;13.70;;;7.00;;
45368;SDS011;51342;55.250;37.668;2023-03-12T09:50:36;11.53;;;6.80;;
45368;SDS011;51342;55.250;37.668;2023-03-12T09:55:55;13.43;;;7.60;;
45368;SDS011;51342;55.250;37.668;2023-03-12T09:58:30;14.10;;;8.07;;
45368;SDS011;51342;55.250;37.668;2023-03-12T10:03:44;13.10;;;7.70;;
45368;SDS011;51342;55.250;37.668;2023-03-12T10:06:46;12.37;;;7.50;;
45368;SDS011;51342;55.250;37.668;2023-03-12T10:12:46;12.80;;;7.70;;
45368;SDS011;51342;55.250;37.668;2023-03-12T10:26:54;15.07;;;9.37;;
45368;SDS011;51342;55.250;37.668;2023-03-12T10:29:35;15.50;;;8.73;;
45368;SDS011;51342;55.250;37.668;2023-03-12T10:32:14;15.03;;;8.87;;
45368;SDS011;51342;55.250;37.668;2023-03-12T10:34:56;13.63;;;8.13;;
45368;SDS011;51342;55.250;37.668;2023-03-12T10:37:39;12.40;;;7.73;;
45368;SDS011;51342;55.250;37.668;2023-03-12T10:40:20;15.20;;;8.30;;
45368;SDS011;51342;55.250;37.668;2023-03-12T10:42:54;12.80;;;7.97;;
45368;SDS011;51342;55.250;37.668;2023-03-12T10:48:23;14.50;;;8.37;;
45368;SDS011;51342;55.250;37.668;2023-03-12T10:53:43;13.97;;;8.03;;
45368;SDS011;51342;55.250;37.668;2023-03-12T10:56:20;14.90;;;8.00;;
45368;SDS011;51342;55.250;37.668;2023-03-12T10:58:59;12.95;;;7.82;;
45368;SDS011;51342;55.250;37.668;2023-03-12T11:01:33;11.00;;;7.57;;
45368;SDS011;51342;55.250;37.668;2023-03-12T11:07:04;10.13;;;6.97;;
45368;SDS011;51342;55.250;37.668;2023-03-12T11:10:36;21.80;;;12.80;;
45368;SDS011;51342;55.250;37.668;2023-03-12T11:12:56;11.97;;;7.00;;
45368;SDS011;51342;55.250;37.668;2023-03-12T11:21:11;12.07;;;6.70;;
45368;SDS011;51342;55.250;37.668;2023-03-12T11:26:30;9.70;;;6.60;;
45368;SDS011;51342;55.250;37.668;2023-03-12T11:34:55;7.33;;;5.30;;
45368;SDS011;51342;55.250;37.668;2023-03-12T11:55:30;6.67;;;4.83;;
45368;SDS011;51342;55.250;37.668;2023-03-12T11:58:17;6.57;;;5.28;;
45368;SDS011;51342;55.250;37.668;2023-03-12T12:01:00;6.83;;;5.40;;
45368;SDS011;51342;55.250;37.668;2023-03-12T12:07:03;1.80;;;1.10;;
45368;SDS011;51342;55.250;37.668;2023-03-12T12:10:01;1.10;;;0.80;;
45368;SDS011;51342;55.250;37.668;2023-03-12T12:16:21;0.57;;;0.40;;
45368;SDS011;51342;55.250;37.668;2023-03-12T12:18:52;0.50;;;0.30;;
45368;SDS011;51342;55.250;37.668;2023-03-12T12:24:33;1.33;;;0.30;;
45368;SDS011;51342;55.250;37.668;2023-03-12T12:27:35;0.40;;;0.20;;
45368;SDS011;51342;55.250;37.668;2023-03-12T12:33:35;0.20;;;0.10;;
45368;SDS011;51342;55.250;37.668;2023-03-12T12:36:20;0.30;;;0.20;;
45368;SDS011;51342;55.250;37.668;2023-03-12T12:38:59;0.15;;;0.13;;
45368;SDS011;51342;55.250;37.668;2023-03-12T12:41:42;0.40;;;0.30;;
45368;SDS011;51342;55.250;37.668;2023-03-12T12:44:26;0.27;;;0.20;;
45368;SDS011;51342;55.250;37.668;2023-03-12T12:47:09;0.50;;;0.27;;
45368;SDS011;51342;55.250;37.668;2023-03-12T12:49:56;0.20;;;0.10;;
45368;SDS011;51342;55.250;37.668;2023-03-12T12:52:34;0.30;;;0.20;;
45368;SDS011;51342;55.250;37.668;2023-03-12T12:58:18;0.10;;;0.10;;
45368;SDS011;51342;55.250;37.668;2023-03-12T13:01:01;0.40;;;0.20;;
45368;SDS011;51342;55.250;37.668;2023-03-12T13:03:37;0.30;;;0.10;;
45368;SDS011;51342;55.250;37.668;2023-03-12T13:06:10;0.20;;;0.20;;
45368;SDS011;51342;55.250;37.668;2023-03-12T13:08:59;0.83;;;0.40;;
45368;SDS011;51342;55.250;37.668;2023-03-12T13:11:43;0.20;;;0.10;;
45368;SDS011;51342;55.250;37.668;2023-03-12T13:14:33;0.83;;;0.30;;
45368;SDS011;51342;55.250;37.668;2023-03-12T13:20:17;0.50;;;0.20;;
45368;SDS011;51342;55.250;37.668;2023-03-12T13:36:32;0.55;;;0.30;;
45368;SDS011;51342;55.250;37.668;2023-03-12T13:41:58;1.90;;;0.90;;
45368;SDS011;51342;55.250;37.668;2023-03-12T13:52:55;4.70;;;1.13;;
45368;SDS011;51342;55.250;37.668;2023-03-12T13:55:36;1.63;;;0.60;;
45368;SDS011;51342;55.250;37.668;2023-03-12T13:58:16;1.00;;;0.57;;
45368;SDS011;51342;55.250;37.668;2023-03-12T14:03:40;0.70;;;0.40;;
45368;SDS011;51342;55.250;37.668;2023-03-12T14:06:23;1.90;;;0.40;;
45368;SDS011;51342;55.250;37.668;2023-03-12T14:09:07;0.50;;;0.37;;
45368;SDS011;51342;55.250;37.668;2023-03-12T14:15:02;1.43;;;0.70;;
45368;SDS011;51342;55.250;37.668;2023-03-12T14:17:53;0.90;;;0.60;;
45368;SDS011;51342;55.250;37.668;2023-03-12T14:20:53;1.10;;;0.70;;
45368;SDS011;51342;55.250;37.668;2023-03-12T14:23:35;1.33;;;0.50;;
45368;SDS011;51342;55.250;37.668;2023-03-12T14:26:19;1.13;;;0.50;;
45368;SDS011;51342;55.250;37.668;2023-03-12T14:28:59;0.93;;;0.40;;
45368;SDS011;51342;55.250;37.668;2023-03-12T14:31:34;1.00;;;0.50;;
45368;SDS011;51342;55.250;37.668;2023-03-12T14:34:17;0.93;;;0.57;;
45368;SDS011;51342;55.250;37.668;2023-03-12T14:39:34;1.70;;;0.90;;
45368;SDS011;51342;55.250;37.668;2023-03-12T14:42:19;0.97;;;0.60;;
45368;SDS011;51342;55.250;37.668;2023-03-12T14:44:57;0.87;;;0.50;;
45368;SDS011;51342;55.250;37.668;2023-03-12T14:47:44;0.90;;;0.38;;
45368;SDS011;51342;55.250;37.668;2023-03-12T14:50:35;0.40;;;0.33;;
45368;SDS011;51342;55.250;37.668;2023-03-12T14:53:12;0.83;;;0.37;;
45368;SDS011;51342;55.250;37.668;2023-03-12T14:56:00;0.80;;;0.40;;
45368;SDS011;51342;55.250;37.668;2023-03-12T14:59:18;0.97;;;0.47;;
45368;SDS011;51342;55.250;37.668;2023-03-12T15:02:17;0.50;;;0.40;;
45368;SDS011;51342;55.250;37.668;2023-03-12T15:04:53;0.97;;;0.47;;
45368;SDS011;51342;55.250;37.668;2023-03-12T15:07:34;0.80;;;0.40;;
45368;SDS011;51342;55.250;37.668;2023-03-12T15:10:32;1.57;;;0.70;;
45368;SDS011;51342;55.250;37.668;2023-03-12T15:13:05;1.90;;;0.50;;
45368;SDS011;51342;55.250;37.668;2023-03-12T15:15:46;1.60;;;0.90;;
45368;SDS011;51342;55.250;37.668;2023-03-12T15:18:26;1.63;;;0.60;;
45368;SDS011;51342;55.250;37.668;2023-03-12T15:21:00;1.63;;;0.80;;
45368;SDS011;51342;55.250;37.668;2023-03-12T15:23:36;1.63;;;0.87;;
45368;SDS011;51342;55.250;37.668;2023-03-12T15:28:55;1.30;;;0.87;;
45368;SDS011;51342;55.250;37.668;2023-03-12T15:31:59;1.40;;;0.70;;
45368;SDS011;51342;55.250;37.668;2023-03-12T15:34:36;2.58;;;1.20;;
45368;SDS011;51342;55.250;37.668;2023-03-12T15:37:25;1.40;;;0.90;;
45368;SDS011;51342;55.250;37.668;2023-03-12T15:40:20;1.53;;;0.90;;
45368;SDS011;51342;55.250;37.668;2023-03-12T15:42:56;2.13;;;1.07;;
45368;SDS011;51342;55.250;37.668;2023-03-12T15:45:38;1.37;;;0.83;;
45368;SDS011;51342;55.250;37.668;2023-03-12T15:51:42;3.38;;;1.30;;
45368;SDS011;51342;55.250;37.668;2023-03-12T15:56:54;1.33;;;1.03;;
45368;SDS011;51342;55.250;37.668;2023-03-12T16:00:05;2.67;;;1.40;;
45368;SDS011;51342;55.250;37.668;2023-03-12T16:02:51;1.90;;;1.10;;
45368;SDS011;51342;55.250;37.668;2023-03-12T16:05:44;1.80;;;1.10;;
45368;SDS011;51342;55.250;37.668;2023-03-12T16:10:58;1.80;;;1.13;;
45368;SDS011;51342;55.250;37.668;2023-03-12T16:13:34;1.60;;;1.08;;
45368;SDS011;51342;55.250;37.668;2023-03-12T16:16:11;1.83;;;1.27;;
45368;SDS011;51342;55.250;37.668;2023-03-12T16:18:48;2.20;;;1.30;;
45368;SDS011;51342;55.250;37.668;2023-03-12T16:21:22;1.73;;;1.00;;
45368;SDS011;51342;55.250;37.668;2023-03-12T16:23:57;2.10;;;1.47;;
45368;SDS011;51342;55.250;37.668;2023-03-12T16:26:32;3.40;;;1.30;;
45368;SDS011;51342;55.250;37.668;2023-03-12T16:29:13;1.87;;;1.33;;
45368;SDS011;51342;55.250;37.668;2023-03-12T16:31:53;1.93;;;1.30;;
45368;SDS011;51342;55.250;37.668;2023-03-12T16:34:30;2.07;;;1.40;;
45368;SDS011;51342;55.250;37.668;2023-03-12T16:37:03;2.50;;;1.40;;
45368;SDS011;51342;55.250;37.668;2023-03-12T16:39:41;2.27;;;1.43;;
45368;SDS011;51342;55.250;37.668;2023-03-12T16:42:21;2.70;;;1.67;;
45368;SDS011;51342;55.250;37.668;2023-03-12T16:44:55;2.50;;;1.67;;
45368;SDS011;51342;55.250;37.668;2023-03-12T16:47:31;2.27;;;1.63;;
45368;SDS011;51342;55.250;37.668;2023-03-12T16:50:16;3.03;;;1.70;;
45368;SDS011;51342;55.250;37.668;2023-03-12T16:52:52;2.10;;;1.40;;
45368;SDS011;51342;55.250;37.668;2023-03-12T16:55:26;2.60;;;1.87;;
45368;SDS011;51342;55.250;37.668;2023-03-12T16:58:01;3.00;;;1.80;;
45368;SDS011;51342;55.250;37.668;2023-03-12T17:00:32;2.87;;;1.90;;
45368;SDS011;51342;55.250;37.668;2023-03-12T17:03:20;2.90;;;1.73;;
45368;SDS011;51342;55.250;37.668;2023-03-12T17:06:02;3.27;;;1.90;;
45368;SDS011;51342;55.250;37.668;2023-03-12T17:08:38;2.33;;;1.73;;
45368;SDS011;51342;55.250;37.668;2023-03-12T17:11:19;3.23;;;2.20;;
45368;SDS011;51342;55.250;37.668;2023-03-12T17:14:04;2.37;;;1.53;;
45368;SDS011;51342;55.250;37.668;2023-03-12T17:16:52;2.90;;;1.90;;
45368;SDS011;51342;55.250;37.668;2023-03-12T17:19:27;3.20;;;1.90;;
45368;SDS011;51342;55.250;37.668;2023-03-12T17:22:02;2.77;;;1.73;;
45368;SDS011;51342;55.250;37.668;2023-03-12T17:24:38;3.55;;;1.90;;